createdAt,value
2022-12-26T05:01:24.875Z,10.70
2022-12-26T05:04:12.445Z,7.80
2022-12-26T05:06:59.730Z,8.50
2022-12-26T05:09:35.460Z,8.60
2022-12-26T05:12:10.405Z,7.80
2022-12-26T05:14:39.766Z,7.50
2022-12-26T05:17:27.630Z,9.80
2022-12-26T05:20:15.306Z,7.30
2022-12-26T05:23:05.542Z,9.10
2022-12-26T05:26:01.304Z,9.90
2022-12-26T05:28:43.742Z,7.30
2022-12-26T05:31:18.122Z,6.80
2022-12-26T05:34:06.528Z,20.50
2022-12-26T05:36:39.405Z,16.40
2022-12-26T05:39:09.906Z,9.90
2022-12-26T05:41:40.965Z,9.50
2022-12-26T05:44:11.294Z,9.80
2022-12-26T05:46:43.014Z,8.80
2022-12-26T05:49:12.303Z,7.10
2022-12-26T05:51:40.584Z,6.60
2022-12-26T05:54:09.850Z,5.60
2022-12-26T05:56:40.951Z,6.70
2022-12-26T05:59:14.171Z,6.50
2022-12-26T06:01:43.632Z,5.20
2022-12-26T06:04:12.841Z,5.70
2022-12-26T06:06:42.031Z,7.60
2022-12-26T06:09:10.762Z,6.20
2022-12-26T06:11:48.409Z,5.00
2022-12-26T06:14:18.674Z,8.80
2022-12-26T06:16:47.673Z,8.70
2022-12-26T06:19:16.919Z,7.80
2022-12-26T06:21:45.727Z,5.90
2022-12-26T06:24:14.734Z,7.70
2022-12-26T06:26:43.965Z,6.70
2022-12-26T06:29:13.303Z,6.10
2022-12-26T06:31:41.879Z,6.90
2022-12-26T06:34:11.386Z,6.90
2022-12-26T06:36:39.787Z,6.00
2022-12-26T06:39:09.149Z,9.20
2022-12-26T06:41:38.624Z,8.70
2022-12-26T06:44:07.248Z,7.50
2022-12-26T06:46:36.757Z,9.40
2022-12-26T06:49:06.706Z,7.80
2022-12-26T06:51:35.984Z,9.40
2022-12-26T06:54:05.027Z,10.90
2022-12-26T06:56:34.737Z,15.20
2022-12-26T06:59:06.752Z,12.70
2022-12-26T07:01:35.257Z,14.10
2022-12-26T07:04:05.332Z,13.40
2022-12-26T07:06:39.021Z,12.80
2022-12-26T07:09:13.612Z,12.40
2022-12-26T07:11:45.701Z,12.10
2022-12-26T07:14:15.717Z,11.60
2022-12-26T07:16:46.866Z,9.80
2022-12-26T07:19:16.605Z,11.80
2022-12-26T07:21:45.455Z,13.80
2022-12-26T07:24:17.002Z,10.80
2022-12-26T07:26:46.151Z,11.40
2022-12-26T07:29:15.731Z,13.90
2022-12-26T07:31:44.981Z,11.40
2022-12-26T07:34:14.164Z,12.30
2022-12-26T07:36:43.797Z,16.20
2022-12-26T07:39:15.684Z,15.20
2022-12-26T07:42:00.197Z,16.60
2022-12-26T07:44:31.292Z,13.50
2022-12-26T07:47:01.206Z,23.30
2022-12-26T07:49:29.710Z,17.90
2022-12-26T07:51:58.811Z,21.60
2022-12-26T07:54:30.322Z,22.10
2022-12-26T07:57:21.756Z,13.90
2022-12-26T07:59:52.005Z,18.30
2022-12-26T08:02:24.490Z,23.00
2022-12-26T08:04:53.533Z,29.50
2022-12-26T08:07:22.801Z,27.90
2022-12-26T08:09:51.119Z,23.90
2022-12-26T08:12:21.869Z,33.20
2022-12-26T08:14:51.837Z,33.50
2022-12-26T08:17:20.926Z,37.50
2022-12-26T08:19:50.355Z,42.50
2022-12-26T08:22:19.422Z,36.10
2022-12-26T08:24:48.564Z,39.50
2022-12-26T08:27:17.754Z,36.80
2022-12-26T08:29:48.617Z,45.20
2022-12-26T08:32:17.898Z,44.40
2022-12-26T08:34:47.300Z,33.40
2022-12-26T08:37:16.599Z,34.90
2022-12-26T08:39:46.149Z,35.60
2022-12-26T08:42:15.656Z,41.20
2022-12-26T08:44:44.772Z,39.30
2022-12-26T08:47:15.097Z,36.30
2022-12-26T08:49:44.526Z,38.70
2022-12-26T08:52:13.916Z,43.30
2022-12-26T08:54:43.093Z,37.20
2022-12-26T08:57:12.363Z,42.80
2022-12-26T08:59:40.919Z,45.80
2022-12-26T09:02:12.632Z,36.50
2022-12-26T09:04:41.703Z,36.20
2022-12-26T09:07:10.370Z,44.30
2022-12-26T09:09:40.388Z,61.10
2022-12-26T09:12:08.764Z,69.60
2022-12-26T09:14:39.541Z,57.00
2022-12-26T09:17:10.246Z,58.40
2022-12-26T09:19:40.001Z,57.90
2022-12-26T09:22:31.935Z,60.10
2022-12-26T09:25:02.995Z,52.90
2022-12-26T09:27:32.171Z,71.70
2022-12-26T09:30:01.450Z,56.80
2022-12-26T09:32:34.735Z,53.70
2022-12-26T09:35:04.729Z,43.50
2022-12-26T09:37:33.774Z,36.30
2022-12-26T09:40:04.531Z,43.30
2022-12-26T09:42:51.992Z,34.90
2022-12-26T09:45:31.512Z,41.20
2022-12-26T09:48:16.035Z,36.50
2022-12-26T09:50:45.165Z,45.20
2022-12-26T09:53:35.796Z,44.40
2022-12-26T09:56:18.304Z,59.70
2022-12-26T09:59:01.527Z,56.50
2022-12-26T10:01:38.967Z,46.50
2022-12-26T10:04:30.163Z,83.70
2022-12-26T10:07:07.566Z,71.90
2022-12-26T10:09:57.537Z,70.30
2022-12-26T10:13:00.882Z,61.00
2022-12-26T10:16:05.822Z,71.70
2022-12-26T10:18:57.458Z,54.40
2022-12-26T10:21:32.307Z,53.10
2022-12-26T10:24:11.626Z,51.10
2022-12-26T10:26:44.681Z,39.30
2022-12-26T10:29:29.388Z,47.80
2022-12-26T10:32:07.828Z,50.40
2022-12-26T10:34:50.335Z,47.10
2022-12-26T10:37:32.296Z,49.00
2022-12-26T10:40:11.073Z,63.60
2022-12-26T10:42:43.722Z,59.20
2022-12-26T10:45:18.419Z,63.20
2022-12-26T10:47:50.453Z,55.80
2022-12-26T10:50:27.766Z,56.40
2022-12-26T10:53:00.551Z,61.90
2022-12-26T10:55:34.721Z,47.30
2022-12-26T10:58:24.584Z,63.40
2022-12-26T11:00:53.909Z,78.90
2022-12-26T11:03:23.723Z,49.10
2022-12-26T11:06:07.455Z,40.00
2022-12-26T11:08:49.747Z,38.10
2022-12-26T11:11:19.283Z,43.50
2022-12-26T11:14:01.250Z,62.30
2022-12-26T11:16:38.180Z,40.40
2022-12-26T11:19:07.045Z,43.90
2022-12-26T11:21:37.287Z,50.80
2022-12-26T11:24:09.569Z,47.40
2022-12-26T11:26:39.189Z,51.50
2022-12-26T11:29:11.814Z,49.60
2022-12-26T11:31:51.373Z,47.20
2022-12-26T11:34:35.276Z,48.50
2022-12-26T11:39:38.634Z,46.40
2022-12-26T11:42:18.826Z,65.30
2022-12-26T11:44:52.698Z,40.80
2022-12-26T11:50:01.376Z,56.30
2022-12-26T11:52:45.060Z,38.80
2022-12-26T11:55:27.496Z,42.90
2022-12-26T11:58:08.598Z,49.40
2022-12-26T12:00:44.260Z,43.10
2022-12-26T12:03:17.617Z,55.60
2022-12-26T12:06:05.688Z,43.00
2022-12-26T12:08:54.631Z,38.30
2022-12-26T12:12:03.545Z,79.60
2022-12-26T12:15:04.061Z,70.20
2022-12-26T12:17:39.881Z,41.70
2022-12-26T12:20:30.997Z,32.70
2022-12-26T12:23:12.434Z,36.90
2022-12-26T12:26:17.516Z,33.90
2022-12-26T12:29:06.454Z,22.10
2022-12-26T12:32:17.530Z,31.80
2022-12-26T12:34:58.697Z,36.30
2022-12-26T12:37:53.781Z,32.20
2022-12-26T12:43:22.736Z,24.40
2022-12-26T12:46:13.503Z,25.60
2022-12-26T12:49:08.729Z,24.50
2022-12-26T12:51:53.463Z,30.60
2022-12-26T12:54:53.360Z,22.60
2022-12-26T12:57:50.308Z,33.40
2022-12-26T13:00:25.112Z,35.50
2022-12-26T13:03:06.221Z,34.10
2022-12-26T13:06:06.839Z,21.90
2022-12-26T13:08:44.899Z,27.40
2022-12-26T13:11:26.486Z,25.00
2022-12-26T13:14:19.944Z,28.80
2022-12-26T13:17:14.064Z,41.30
2022-12-26T13:20:16.022Z,27.90
2022-12-26T13:23:08.075Z,25.30
2022-12-26T13:25:44.809Z,26.80
2022-12-26T13:28:29.381Z,28.00
2022-12-26T13:30:58.630Z,22.40
2022-12-26T13:33:28.534Z,27.70
2022-12-26T13:36:05.917Z,23.80
2022-12-26T13:38:56.127Z,15.90
2022-12-26T13:41:45.435Z,14.20
2022-12-26T13:44:21.141Z,21.80
2022-12-26T13:46:50.314Z,29.60
2022-12-26T13:49:37.270Z,27.90
2022-12-26T13:52:12.384Z,26.50
2022-12-26T13:55:09.578Z,21.30
2022-12-26T13:57:45.172Z,30.00
2022-12-26T14:00:18.760Z,26.30
2022-12-26T14:03:18.111Z,17.70
2022-12-26T14:06:25.565Z,16.90
2022-12-26T14:09:18.652Z,24.70
2022-12-26T14:11:50.391Z,27.20
2022-12-26T14:14:30.500Z,36.60
2022-12-26T14:17:14.662Z,36.00
2022-12-26T14:20:01.030Z,36.10
2022-12-26T14:22:49.477Z,44.60
2022-12-26T14:25:35.293Z,41.90
2022-12-26T14:28:19.876Z,36.80
2022-12-26T14:30:58.928Z,40.70
2022-12-26T14:33:34.936Z,45.40
2022-12-26T14:36:13.407Z,37.40
2022-12-26T14:39:14.454Z,40.60
2022-12-26T14:42:43.448Z,38.10
2022-12-26T14:45:26.838Z,42.70
2022-12-26T14:47:56.599Z,44.80
2022-12-26T14:50:41.827Z,63.30
2022-12-26T14:53:28.622Z,54.20
2022-12-26T14:56:01.521Z,65.90
2022-12-26T14:58:53.149Z,64.30
2022-12-26T15:01:24.498Z,57.90
2022-12-26T15:04:10.175Z,57.00
2022-12-26T15:06:58.408Z,59.40
2022-12-26T15:09:50.355Z,57.40
2022-12-26T15:12:37.066Z,55.30
2022-12-26T15:15:41.895Z,57.20
2022-12-26T15:18:35.295Z,52.70
2022-12-26T15:21:41.917Z,46.90
2022-12-26T15:25:17.028Z,42.40
2022-12-26T15:27:30.816Z,36.00
2022-12-26T15:30:14.663Z,26.70
2022-12-26T15:33:22.319Z,28.70
2022-12-26T15:36:14.429Z,23.90
2022-12-26T15:38:53.314Z,28.30
2022-12-26T15:41:54.383Z,29.30
2022-12-26T15:44:50.948Z,31.90
2022-12-26T15:47:34.631Z,23.50
2022-12-26T15:50:21.803Z,16.10
2022-12-26T15:53:16.449Z,17.30
2022-12-26T15:56:11.917Z,15.70
2022-12-26T15:59:07.293Z,22.10
2022-12-26T16:01:43.752Z,17.90
2022-12-26T16:04:22.963Z,19.30
2022-12-26T16:07:07.329Z,29.10
2022-12-26T16:09:45.269Z,30.30
2022-12-26T16:12:21.659Z,50.70
2022-12-26T16:15:01.157Z,47.80
2022-12-26T16:17:30.539Z,51.10
2022-12-26T16:19:59.687Z,50.80
2022-12-26T16:22:50.039Z,58.20
2022-12-26T16:25:26.564Z,121.70
2022-12-26T16:27:58.806Z,138.00
2022-12-26T16:30:33.504Z,61.80
2022-12-26T16:33:03.750Z,59.40
2022-12-26T16:35:38.645Z,22.70
2022-12-26T16:38:12.733Z,59.30
2022-12-26T16:40:48.909Z,53.50
2022-12-26T16:43:28.147Z,25.70
2022-12-26T16:46:02.907Z,106.40
2022-12-26T16:48:33.830Z,61.30
2022-12-26T16:51:06.706Z,37.00
2022-12-26T16:53:35.009Z,20.40
2022-12-26T16:56:28.682Z,17.30
2022-12-26T16:59:09.694Z,26.20
2022-12-26T17:01:41.699Z,28.70
2022-12-26T17:04:13.012Z,29.50
2022-12-26T17:06:55.510Z,57.30
2022-12-26T17:09:26.484Z,31.40
2022-12-26T17:12:01.702Z,23.20
2022-12-26T17:14:43.046Z,27.10
2022-12-26T17:17:23.885Z,27.50
2022-12-26T17:19:55.949Z,26.70
2022-12-26T17:22:36.076Z,39.90
2022-12-26T17:25:24.667Z,45.20
2022-12-26T17:28:08.516Z,61.60
2022-12-26T17:30:39.301Z,76.60
2022-12-26T17:33:15.570Z,80.00
2022-12-26T17:43:11.047Z,71.60
2022-12-26T17:45:46.647Z,63.70
2022-12-26T17:48:16.441Z,69.50
2022-12-26T17:50:48.636Z,66.20
2022-12-26T17:53:23.392Z,74.40
2022-12-26T17:55:54.014Z,43.10
2022-12-26T17:58:24.599Z,45.70
2022-12-26T18:00:54.249Z,32.60
2022-12-26T18:03:23.585Z,43.30
2022-12-26T18:05:56.646Z,41.00
2022-12-26T18:08:33.624Z,25.40
2022-12-26T18:11:05.153Z,31.40
2022-12-26T18:13:34.268Z,31.80
2022-12-26T18:16:04.366Z,37.70
2022-12-26T18:18:38.322Z,27.30
2022-12-26T18:21:10.359Z,27.90
2022-12-26T18:23:39.127Z,28.20
2022-12-26T18:26:20.913Z,22.50
2022-12-26T18:28:50.587Z,23.80
2022-12-26T18:31:20.075Z,26.50
2022-12-26T18:33:49.243Z,29.80
2022-12-26T18:36:18.916Z,21.70
2022-12-26T18:38:47.473Z,22.60
2022-12-26T18:41:17.818Z,17.70
2022-12-26T18:43:46.749Z,19.70
2022-12-26T18:46:21.425Z,17.10
2022-12-26T18:48:51.449Z,28.60
2022-12-26T18:51:21.420Z,23.00
2022-12-26T18:53:50.370Z,33.30
2022-12-26T18:56:21.271Z,25.00
2022-12-26T18:58:57.516Z,24.30
2022-12-26T19:01:27.198Z,15.70
2022-12-26T19:03:58.027Z,12.50
2022-12-26T19:06:28.705Z,14.40
2022-12-26T19:08:58.823Z,12.90
2022-12-26T19:11:27.940Z,15.40
2022-12-26T19:13:57.597Z,19.60
2022-12-26T19:16:27.093Z,13.30
2022-12-26T19:18:55.853Z,20.60
2022-12-26T19:21:25.113Z,23.80
2022-12-26T19:23:54.212Z,19.60
2022-12-26T19:26:23.494Z,21.70
2022-12-26T19:28:54.086Z,26.90
2022-12-26T19:31:23.839Z,33.60
2022-12-26T19:33:52.482Z,30.90
2022-12-26T19:36:21.294Z,29.80
2022-12-26T19:38:54.546Z,30.70
2022-12-26T19:41:23.418Z,27.80
2022-12-26T19:43:56.907Z,26.90
2022-12-26T19:46:26.405Z,25.50
2022-12-26T19:48:55.283Z,45.50
2022-12-26T19:51:23.969Z,43.10
2022-12-26T19:53:53.147Z,48.00
2022-12-26T19:56:25.436Z,47.70
2022-12-26T19:58:56.869Z,64.90
2022-12-26T20:01:30.248Z,77.00
2022-12-26T20:04:01.712Z,99.30
2022-12-26T20:06:31.949Z,128.60
2022-12-26T20:09:09.424Z,51.50
2022-12-26T20:11:44.668Z,38.80
2022-12-26T20:14:16.511Z,33.70
2022-12-26T20:17:05.073Z,60.50
2022-12-26T20:19:34.811Z,75.70
2022-12-26T20:22:03.931Z,82.70
2022-12-26T20:24:32.951Z,94.20
2022-12-26T20:27:02.593Z,96.50
2022-12-26T20:29:31.331Z,60.70
2022-12-26T20:32:00.118Z,49.70
2022-12-26T20:34:30.038Z,25.60
2022-12-26T20:36:58.752Z,44.60
2022-12-26T20:39:28.020Z,74.50
2022-12-26T20:41:58.225Z,65.70
2022-12-26T20:44:26.951Z,51.40
2022-12-26T20:46:55.448Z,38.10
2022-12-26T20:49:24.004Z,39.90
2022-12-26T20:51:53.034Z,35.20
2022-12-26T20:54:21.421Z,30.20
2022-12-26T20:56:50.127Z,29.60
2022-12-26T20:59:19.183Z,36.30
2022-12-26T21:01:47.871Z,57.30
2022-12-26T21:04:19.888Z,25.50
2022-12-26T21:06:50.767Z,39.30
2022-12-26T21:09:19.296Z,49.50
2022-12-26T21:11:47.950Z,36.90
2022-12-26T21:14:20.756Z,58.60
2022-12-26T21:16:58.622Z,59.30
2022-12-26T21:19:30.808Z,108.70
2022-12-26T21:21:59.227Z,146.90
2022-12-26T21:24:30.684Z,77.10
2022-12-26T21:26:59.225Z,47.90
2022-12-26T21:29:30.353Z,225.60
2022-12-26T21:31:59.803Z,117.90
2022-12-26T21:34:30.998Z,58.80
2022-12-26T21:37:19.298Z,63.00
2022-12-26T21:39:47.677Z,37.50
2022-12-26T21:42:16.463Z,44.90
2022-12-26T21:44:44.968Z,28.30
2022-12-26T21:47:13.841Z,32.90
2022-12-26T21:49:42.218Z,23.70
2022-12-26T21:52:11.734Z,27.50
2022-12-26T21:54:58.773Z,29.40
2022-12-26T21:57:27.339Z,23.80
2022-12-26T21:59:58.963Z,19.70
2022-12-26T22:02:50.292Z,18.30
2022-12-26T22:05:21.207Z,20.30
2022-12-26T22:07:55.625Z,20.40
2022-12-26T22:10:45.459Z,29.00
2022-12-26T22:13:14.859Z,20.70
2022-12-26T22:16:03.844Z,21.40
2022-12-26T22:18:40.267Z,30.20
2022-12-26T22:21:18.482Z,46.00
2022-12-26T22:23:50.746Z,59.00
2022-12-26T22:26:21.975Z,81.10
2022-12-26T22:28:51.014Z,58.60
2022-12-26T22:31:30.144Z,45.90
2022-12-26T22:34:12.531Z,72.10
2022-12-26T22:36:41.991Z,69.10
2022-12-26T22:39:13.356Z,67.60
2022-12-26T22:41:41.759Z,67.80
2022-12-26T22:44:14.483Z,42.90
2022-12-26T22:46:43.336Z,27.40
2022-12-26T22:49:11.656Z,23.90
2022-12-26T22:51:41.947Z,22.90
2022-12-26T22:54:13.363Z,14.80
2022-12-26T22:56:41.593Z,16.50
2022-12-26T22:59:13.645Z,14.30
2022-12-26T23:01:47.128Z,16.20
2022-12-26T23:04:16.369Z,12.50
2022-12-26T23:06:45.360Z,18.20
2022-12-26T23:09:16.879Z,13.40
2022-12-26T23:12:05.522Z,8.50
2022-12-26T23:14:34.181Z,7.00
2022-12-26T23:17:07.665Z,12.80
2022-12-26T23:20:10.906Z,10.20
2022-12-26T23:22:40.340Z,15.00
2022-12-26T23:25:12.779Z,20.60
2022-12-26T23:28:21.114Z,11.80
2022-12-26T23:30:49.901Z,17.70
2022-12-26T23:33:19.263Z,11.80
2022-12-26T23:35:48.021Z,16.40
2022-12-26T23:38:17.087Z,9.50
2022-12-26T23:40:46.226Z,8.90
2022-12-26T23:43:15.518Z,7.00
2022-12-26T23:45:45.213Z,6.40
2022-12-26T23:48:14.987Z,8.30
2022-12-26T23:50:43.370Z,10.50
2022-12-26T23:53:12.580Z,9.70
2022-12-26T23:55:42.245Z,5.30
2022-12-26T23:58:11.549Z,12.90
